Time;durP1;ratioP1;P1;durP2;ratioP2;P2;SDS_P1;SDS_P2;PMS_P1;PMS_P2;Temp;Humidity;BMP_temperature;BMP_pressure;BME280_temperature;BME280_humidity;BME280_pressure;Samples;Min_cycle;Max_cycle;Signal;HPM_P1;HPM_P2
2023/03/03 00:01:40;;;;;;;30.00;16.23;;;;;;;0.81;100.00;102347.22;5134158;27;20360;-52
2023/03/03 00:04:08;;;;;;;33.40;16.25;;;;;;;0.78;100.00;102344.66;5133128;27;20046;-53
2023/03/03 00:06:37;;;;;;;27.83;14.50;;;;;;;0.63;100.00;102348.09;5108566;28;20619;-50
2023/03/03 00:09:06;;;;;;;26.63;14.13;;;;;;;0.60;100.00;102340.31;5111992;28;20050;-50
2023/03/03 00:11:34;;;;;;;30.27;15.35;;;;;;;0.56;100.00;102343.75;5113513;28;20047;-50
2023/03/03 00:14:02;;;;;;;32.53;14.90;;;;;;;0.46;100.00;102348.06;5113902;28;20047;-50
2023/03/03 00:16:35;;;;;;;30.38;15.32;;;;;;;0.49;100.00;102350.66;5113874;28;20071;-48
2023/03/03 00:19:03;;;;;;;29.15;14.23;;;;;;;0.49;100.00;102350.66;5112608;28;20047;-51
2023/03/03 00:21:40;;;;;;;30.80;14.75;;;;;;;0.42;100.00;102342.00;5106401;28;20048;-52
2023/03/03 00:24:21;;;;;;;31.38;14.38;;;;;;;0.46;100.00;102346.38;5112265;28;20043;-50
2023/03/03 00:26:54;;;;;;;32.80;14.93;;;;;;;0.46;100.00;102348.06;5113526;28;20048;-50
2023/03/03 00:29:29;;;;;;;27.67;14.32;;;;;;;0.49;100.00;102353.25;5110443;28;20123;-52
2023/03/03 00:32:16;;;;;;;28.35;14.57;;;;;;;0.43;100.00;102356.69;5111698;28;20425;-51
2023/03/03 00:34:44;;;;;;;28.55;14.60;;;;;;;0.54;100.00;102353.25;5131778;27;20047;-49
2023/03/03 00:37:29;;;;;;;28.33;14.23;;;;;;;0.48;100.00;102354.13;5118395;27;20110;-48
2023/03/03 00:40:13;;;;;;;27.08;14.63;;;;;;;0.45;100.00;102348.91;5117759;27;20040;-51
2023/03/03 00:42:43;;;;;;;34.25;15.77;;;;;;;0.38;100.00;102361.00;5123381;27;20046;-50
2023/03/03 00:45:27;;;;;;;33.25;16.35;;;;;;;0.34;100.00;102361.84;5117837;27;20062;-50
2023/03/03 00:47:55;;;;;;;31.42;16.50;;;;;;;0.38;100.00;102355.81;5130701;27;20042;-51
2023/03/03 00:50:34;;;;;;;36.33;16.58;;;;;;;0.37;100.00;102359.28;5125697;27;20047;-52
2023/03/03 00:53:07;;;;;;;30.88;15.30;;;;;;;0.40;100.00;102361.88;5116628;27;20047;-50
2023/03/03 00:55:36;;;;;;;33.92;14.77;;;;;;;0.40;100.00;102355.84;5125500;27;20051;-52
2023/03/03 00:58:04;;;;;;;31.60;14.52;;;;;;;0.41;100.00;102357.53;5126108;27;20054;-49
2023/03/03 01:00:33;;;;;;;30.58;15.55;;;;;;;0.34;100.00;102354.09;5133718;27;20520;-48
2023/03/03 01:03:04;;;;;;;28.50;13.63;;;;;;;0.31;100.00;102362.72;5122185;27;20035;-48
2023/03/03 01:05:32;;;;;;;26.08;13.57;;;;;;;0.30;100.00;102361.00;5114541;28;20046;-50
2023/03/03 01:08:01;;;;;;;29.25;12.93;;;;;;;0.26;100.00;102360.97;5118242;28;20142;-49
2023/03/03 01:10:34;;;;;;;25.85;12.80;;;;;;;0.22;100.00;102367.00;5116494;27;20045;-49
2023/03/03 01:13:04;;;;;;;;;;;;;;;0.15;100.00;102360.94;5120024;27;20104;-50
2023/03/03 01:15:32;;;;;;;31.55;13.40;;;;;;;0.10;100.00;102358.34;5121481;28;20362;-47
2023/03/03 01:18:00;;;;;;;27.60;13.75;;;;;;;0.11;100.00;102360.09;5133423;28;20461;-47
2023/03/03 01:20:29;;;;;;;27.42;12.93;;;;;;;0.13;100.00;102355.75;5133340;28;20046;-50
2023/03/03 01:22:57;;;;;;;31.13;14.30;;;;;;;0.12;100.00;102358.34;5112861;28;20081;-48
2023/03/03 01:25:25;;;;;;;28.63;13.38;;;;;;;0.14;100.00;102354.91;5110623;28;20040;-49
2023/03/03 01:27:53;;;;;;;24.98;13.00;;;;;;;0.17;100.00;102360.09;5114353;28;20112;-49
2023/03/03 01:30:24;;;;;;;28.85;13.88;;;;;;;0.15;100.00;102361.81;5120650;28;20036;-49
2023/03/03 01:32:52;;;;;;;28.50;13.98;;;;;;;0.11;100.00;102357.50;5116857;28;20155;-53
2023/03/03 01:35:20;;;;;;;30.35;14.07;;;;;;;0.13;100.00;102355.75;5115771;27;20040;-49
2023/03/03 01:37:48;;;;;;;29.00;13.35;;;;;;;0.05;100.00;102359.22;5118902;27;20066;-50
2023/03/03 01:40:20;;;;;;;27.63;13.40;;;;;;;0.08;100.00;102360.09;5126163;27;20065;-49
2023/03/03 01:42:48;;;;;;;26.98;13.05;;;;;;;0.08;100.00;102360.09;5119122;27;21002;-51
2023/03/03 01:45:20;;;;;;;27.13;13.48;;;;;;;0.09;100.00;102361.78;5119784;27;20055;-49
2023/03/03 01:47:58;;;;;;;28.38;13.85;;;;;;;0.14;100.00;102354.91;5123423;27;20043;-51
2023/03/03 01:50:36;;;;;;;28.45;13.13;;;;;;;0.11;100.00;102357.50;5114453;27;20053;-49
2023/03/03 01:53:06;;;;;;;26.25;12.82;;;;;;;0.11;100.00;102356.63;5124708;27;20497;-50
2023/03/03 01:55:37;;;;;;;28.10;13.05;;;;;;;0.08;100.00;102364.38;5135625;27;20051;-51
2023/03/03 01:58:08;;;;;;;32.08;14.00;;;;;;;0.11;100.00;102364.38;5136963;27;20050;-48
2023/03/03 02:00:39;;;;;;;27.67;13.52;;;;;;;0.16;100.00;102365.25;5136627;27;20096;-53
2023/03/03 02:03:09;;;;;;;29.40;13.68;;;;;;;0.17;100.00;102362.69;5136002;27;20047;-52
2023/03/03 02:05:40;;;;;;;32.33;14.55;;;;;;;0.11;100.00;102366.97;5136618;27;20051;-52
2023/03/03 02:08:10;;;;;;;31.67;14.05;;;;;;;0.14;100.00;102364.41;5136681;27;20100;-51
2023/03/03 02:10:38;;;;;;;32.10;14.82;;;;;;;0.15;100.00;102367.00;5136039;27;20075;-48
2023/03/03 02:13:07;;;;;;;32.15;14.98;;;;;;;0.16;100.00;102367.84;5133845;27;20423;-51
2023/03/03 02:15:35;;;;;;;31.77;14.30;;;;;;;0.22;100.00;102369.59;5133056;27;20072;-49
2023/03/03 02:18:06;;;;;;;29.33;14.02;;;;;;;0.22;100.00;102373.06;5134593;27;20157;-48
2023/03/03 02:20:51;;;;;;;29.50;13.23;;;;;;;0.20;100.00;102371.31;5123141;27;20040;-49
2023/03/03 02:23:22;;;;;;;;;;;;;;;0.29;100.00;102368.75;5121507;27;20047;-50
2023/03/03 02:26:09;;;;;;;30.63;13.15;;;;;;;0.23;100.00;102374.78;5116725;27;19923;-48
2023/03/03 02:28:40;;;;;;;34.10;14.93;;;;;;;0.22;100.00;102370.47;5118309;27;20387;-50
2023/03/03 02:31:12;;;;;;;32.25;14.80;;;;;;;0.19;100.00;102365.25;5121636;27;20039;-48
2023/03/03 02:33:41;;;;;;;34.90;15.43;;;;;;;0.22;100.00;102361.81;5117351;27;20813;-51
2023/03/03 02:36:13;;;;;;;33.95;15.13;;;;;;;0.26;100.00;102367.03;5118733;27;20428;-48
2023/03/03 02:38:49;;;;;;;34.13;14.88;;;;;;;0.29;100.00;102364.44;5119081;27;20070;-48
2023/03/03 02:41:30;;;;;;;32.33;14.50;;;;;;;0.31;100.00;102367.03;5124750;27;20039;-49
2023/03/03 02:44:01;;;;;;;34.83;15.57;;;;;;;0.31;100.00;102362.72;5118481;27;20485;-52
2023/03/03 02:46:34;;;;;;;34.42;15.05;;;;;;;0.39;100.00;102367.06;5113987;27;20122;-50
2023/03/03 02:49:03;;;;;;;36.13;14.68;;;;;;;0.39;100.00;102364.47;5118940;27;20063;-50
2023/03/03 02:51:31;;;;;;;31.20;14.82;;;;;;;0.38;100.00;102357.56;5120943;27;20533;-51
2023/03/03 02:54:00;;;;;;;36.28;15.25;;;;;;;0.36;100.00;102360.13;5129149;27;20362;-51
2023/03/03 02:56:29;;;;;;;32.58;14.38;;;;;;;0.36;100.00;102354.09;5114454;27;20047;-49
2023/03/03 02:58:58;;;;;;;33.03;14.65;;;;;;;0.39;100.00;102349.78;5120092;27;20118;-49
2023/03/03 03:01:26;;;;;;;35.97;15.23;;;;;;;0.40;100.00;102359.28;5135574;27;20553;-49
2023/03/03 03:03:54;;;;;;;32.30;14.73;;;;;;;0.41;100.00;102360.13;5135794;27;20051;-50
2023/03/03 03:06:23;;;;;;;38.63;15.38;;;;;;;0.36;100.00;102361.88;5133730;27;20130;-49
2023/03/03 03:08:51;;;;;;;36.90;15.85;;;;;;;0.40;100.00;102369.63;5131524;27;20493;-50
2023/03/03 03:11:19;;;;;;;38.75;15.38;;;;;;;0.40;100.00;102364.47;5133123;27;20101;-50
2023/03/03 03:13:48;;;;;;;37.95;15.80;;;;;;;0.46;100.00;102364.47;5135445;27;20047;-53
2023/03/03 03:16:16;;;;;;;33.70;16.30;;;;;;;0.46;100.00;102361.00;5134398;27;20055;-52
2023/03/03 03:18:45;;;;;;;33.35;14.65;;;;;;;0.51;100.00;102361.88;5132024;27;20104;-54
2023/03/03 03:21:14;;;;;;;35.92;16.73;;;;;;;0.38;100.00;102365.31;5132702;27;20051;-51
2023/03/03 03:23:44;;;;;;;34.63;15.40;;;;;;;0.44;100.00;102358.44;5134500;27;20044;-50
2023/03/03 03:26:13;;;;;;;36.25;15.85;;;;;;;0.46;100.00;102364.47;5123993;27;20047;-59
2023/03/03 03:28:44;;;;;;;35.65;16.00;;;;;;;0.46;100.00;102361.91;5121722;27;20074;-58
2023/03/03 03:31:14;;;;;;;40.10;16.75;;;;;;;0.42;100.00;102367.03;5122419;27;20058;-59
2023/03/03 03:33:43;;;;;;;36.33;15.32;;;;;;;0.47;100.00;102371.38;5126130;27;20035;-59
2023/03/03 03:36:12;;;;;;;36.63;16.00;;;;;;;0.45;100.00;102359.28;5118464;27;20039;-60
2023/03/03 03:38:43;;;;;;;37.25;15.75;;;;;;;0.40;100.00;102369.63;5122707;27;20040;-59
2023/03/03 03:41:12;;;;;;;32.63;13.80;;;;;;;0.42;100.00;102364.47;5121540;27;20039;-58
2023/03/03 03:43:41;;;;;;;36.00;15.02;;;;;;;0.40;100.00;102361.88;5128306;27;20092;-59
2023/03/03 03:46:09;;;;;;;37.42;15.73;;;;;;;0.42;100.00;102354.94;5122323;27;20112;-59
2023/03/03 03:48:38;;;;;;;38.72;16.48;;;;;;;0.46;100.00;102358.44;5128184;27;20039;-60
2023/03/03 03:51:06;;;;;;;36.70;14.80;;;;;;;0.45;100.00;102370.50;5123852;27;20053;-58
2023/03/03 03:53:35;;;;;;;33.60;14.70;;;;;;;0.46;100.00;102364.47;5128419;27;20043;-59
2023/03/03 03:56:03;;;;;;;38.80;15.75;;;;;;;0.50;100.00;102368.81;5134739;27;20055;-59
2023/03/03 03:58:33;;;;;;;35.40;14.68;;;;;;;0.49;100.00;102373.94;5133006;27;20050;-59
2023/03/03 04:01:03;;;;;;;33.35;15.05;;;;;;;0.51;100.00;102377.41;5132068;27;20375;-59
2023/03/03 04:03:32;;;;;;;28.92;12.80;;;;;;;0.48;100.00;102372.25;5132024;27;20058;-58
2023/03/03 04:06:01;;;;;;;32.25;13.95;;;;;;;0.45;100.00;102370.50;5131615;27;20054;-59
2023/03/03 04:08:29;;;;;;;32.78;14.48;;;;;;;0.48;100.00;102372.25;5132897;27;20100;-59
2023/03/03 04:10:57;;;;;;;35.20;14.05;;;;;;;0.52;100.00;102365.31;5134135;27;20058;-58
2023/03/03 04:13:30;;;;;;;31.90;14.27;;;;;;;0.46;100.00;102361.00;5134633;27;20114;-59
2023/03/03 04:15:59;;;;;;;34.67;14.73;;;;;;;0.49;100.00;102367.06;5134461;27;20538;-59
2023/03/03 04:18:27;;;;;;;29.85;12.68;;;;;;;0.52;100.00;102360.16;5134061;27;20525;-60
2023/03/03 04:20:55;;;;;;;28.10;13.65;;;;;;;0.49;100.00;102366.19;5130802;27;20039;-59
2023/03/03 04:23:25;;;;;;;32.50;14.95;;;;;;;0.54;100.00;102368.78;5127786;27;20126;-60
2023/03/03 04:25:53;;;;;;;33.35;14.27;;;;;;;0.55;100.00;102361.03;5119954;27;20054;-60
2023/03/03 04:28:24;;;;;;;33.08;14.20;;;;;;;0.57;100.00;102366.19;5120349;27;20055;-60
2023/03/03 04:30:52;;;;;;;33.33;14.27;;;;;;;0.54;100.00;102364.47;5122167;27;20156;-60
2023/03/03 04:33:20;;;;;;;35.95;13.65;;;;;;;0.57;100.00;102368.78;5126569;27;20051;-59
2023/03/03 04:35:48;;;;;;;35.92;15.38;;;;;;;0.57;100.00;102368.78;5122721;27;20074;-59
2023/03/03 04:38:17;;;;;;;33.38;13.90;;;;;;;0.57;100.00;102368.78;5120784;27;20047;-59
2023/03/03 04:40:46;;;;;;;31.92;14.10;;;;;;;0.60;100.00;102372.25;5121584;27;20079;-59
2023/03/03 04:43:14;;;;;;;32.50;14.30;;;;;;;0.57;100.00;102361.88;5125546;27;20040;-59
2023/03/03 04:45:42;;;;;;;34.47;14.38;;;;;;;0.59;100.00;102364.50;5128205;27;20053;-60
2023/03/03 04:48:14;;;;;;;35.85;15.98;;;;;;;0.60;100.00;102363.59;5125853;27;20494;-59
2023/03/03 04:50:42;;;;;;;37.63;16.13;;;;;;;0.65;100.00;102367.91;5125670;27;20054;-59
2023/03/03 04:53:10;;;;;;;35.05;15.27;;;;;;;0.65;100.00;102367.06;5125703;27;20443;-58
2023/03/03 04:55:39;;;;;;;35.88;13.82;;;;;;;0.66;100.00;102369.66;5123051;27;20575;-59
2023/03/03 04:58:09;;;;;;;37.35;15.63;;;;;;;0.66;100.00;102380.00;5131597;27;20065;-59
2023/03/03 05:00:38;;;;;;;38.03;15.43;;;;;;;0.61;100.00;102370.53;5132086;27;20049;-59
2023/03/03 05:03:06;;;;;;;38.42;15.63;;;;;;;0.64;100.00;102381.75;5132723;27;20039;-58
2023/03/03 05:05:35;;;;;;;34.58;15.05;;;;;;;0.64;100.00;102376.56;5130368;27;20043;-58
2023/03/03 05:08:03;;;;;;;37.80;15.55;;;;;;;0.67;100.00;102383.50;5133277;27;20088;-59
2023/03/03 05:10:31;;;;;;;36.15;14.93;;;;;;;0.61;100.00;102378.28;5129280;27;20047;-58
2023/03/03 05:13:02;;;;;;;37.30;14.73;;;;;;;0.65;100.00;102380.03;5131122;27;20058;-58
2023/03/03 05:15:31;;;;;;;34.75;15.82;;;;;;;0.59;100.00;102380.03;5131950;27;20462;-59
2023/03/03 05:17:59;;;;;;;35.30;15.63;;;;;;;0.62;100.00;102385.19;5130446;28;20107;-59
2023/03/03 05:20:28;;;;;;;32.47;14.02;;;;;;;0.69;100.00;102376.56;5129699;27;20588;-59
2023/03/03 05:22:58;;;;;;;31.63;13.93;;;;;;;0.71;100.00;102387.81;5122892;28;20039;-58
2023/03/03 05:25:26;;;;;;;33.35;14.20;;;;;;;0.70;100.00;102388.66;5123142;27;20070;-58
2023/03/03 05:27:55;;;;;;;36.20;14.52;;;;;;;0.75;100.00;102388.66;5123913;28;20043;-59
2023/03/03 05:30:23;;;;;;;34.88;14.35;;;;;;;0.75;100.00;102392.13;5124487;27;20075;-59
2023/03/03 05:32:52;;;;;;;38.00;15.50;;;;;;;0.73;100.00;102380.88;5120687;28;20084;-59
2023/03/03 05:35:20;;;;;;;32.58;14.73;;;;;;;0.76;100.00;102385.22;5125257;28;20047;-60
2023/03/03 05:37:49;;;;;;;33.53;13.95;;;;;;;0.76;100.00;102383.47;5120576;28;20048;-59
2023/03/03 05:40:17;;;;;;;39.00;16.05;;;;;;;0.75;100.00;102388.66;5122843;28;20552;-60
2023/03/03 05:42:45;;;;;;;40.97;15.63;;;;;;;0.78;100.00;102389.53;5127948;28;20036;-59
2023/03/03 05:45:13;;;;;;;35.10;16.05;;;;;;;0.75;100.00;102388.66;5122568;27;20050;-59
2023/03/03 05:47:41;;;;;;;38.85;15.55;;;;;;;0.77;100.00;102392.97;5119706;27;20071;-59
2023/03/03 05:50:12;;;;;;;36.72;15.45;;;;;;;0.66;100.00;102397.28;5122006;27;20114;-59
2023/03/03 05:52:40;;;;;;;36.60;13.88;;;;;;;0.74;100.00;102402.50;5118984;27;20040;-59
2023/03/03 05:55:09;;;;;;;32.70;13.73;;;;;;;0.71;100.00;102392.09;5120178;28;20055;-59
2023/03/03 05:57:38;;;;;;;31.70;13.68;;;;;;;0.67;100.00;102396.44;5127726;28;20126;-59
2023/03/03 06:00:07;;;;;;;32.72;14.57;;;;;;;0.66;100.00;102392.13;5120742;28;20520;-59
2023/03/03 06:02:35;;;;;;;34.65;14.43;;;;;;;0.70;100.00;102399.03;5121952;27;20040;-59
2023/03/03 06:05:04;;;;;;;33.85;14.50;;;;;;;0.61;100.00;102401.59;5126383;28;20040;-59
2023/03/03 06:07:34;;;;;;;34.70;13.95;;;;;;;0.62;100.00;102406.78;5120261;27;20111;-59
2023/03/03 06:10:02;;;;;;;36.00;14.95;;;;;;;0.60;100.00;102400.75;5123912;28;20047;-59
2023/03/03 06:12:30;;;;;;;36.28;14.80;;;;;;;0.60;100.00;102410.22;5127492;27;20047;-59
2023/03/03 06:14:58;;;;;;;29.27;13.07;;;;;;;0.60;100.00;102408.50;5121191;28;20055;-58
2023/03/03 06:17:26;;;;;;;31.73;13.73;;;;;;;0.58;100.00;102410.22;5119737;28;20122;-59
2023/03/03 06:19:55;;;;;;;35.22;13.73;;;;;;;0.60;100.00;102412.81;5121811;27;20035;-59
2023/03/03 06:22:23;;;;;;;34.67;14.60;;;;;;;0.57;100.00;102418.00;5123310;27;20043;-59
2023/03/03 06:24:52;;;;;;;28.08;12.73;;;;;;;0.51;100.00;102411.06;5127133;27;20051;-60
2023/03/03 06:27:21;;;;;;;28.80;13.13;;;;;;;0.51;100.00;102416.25;5121855;27;20059;-60
2023/03/03 06:29:49;;;;;;;28.75;12.65;;;;;;;0.54;100.00;102420.59;5129146;27;20059;-59
2023/03/03 06:32:17;;;;;;;27.80;12.93;;;;;;;0.56;100.00;102419.72;5126263;27;20042;-59
2023/03/03 06:34:45;;;;;;;26.95;12.65;;;;;;;0.62;100.00;102424.91;5125400;27;20092;-59
2023/03/03 06:37:13;;;;;;;29.25;12.68;;;;;;;0.58;100.00;102423.16;5125333;27;20054;-60
2023/03/03 06:39:42;;;;;;;26.15;11.50;;;;;;;0.59;100.00;102434.41;5126510;27;20047;-59
2023/03/03 06:42:11;;;;;;;24.73;11.15;;;;;;;0.62;100.00;102430.06;5128105;27;20039;-60
2023/03/03 06:44:39;;;;;;;25.15;10.57;;;;;;;0.57;100.00;102429.19;5124842;27;20491;-59
2023/03/03 06:47:10;;;;;;;21.58;9.73;;;;;;;0.60;100.00;102431.81;5123376;27;20043;-59
2023/03/03 06:49:38;;;;;;;23.30;10.88;;;;;;;0.62;100.00;102435.25;5130000;27;20039;-60
2023/03/03 06:52:13;;;;;;;24.23;9.27;;;;;;;0.56;100.00;102434.38;5130965;27;20050;-59
2023/03/03 06:54:41;;;;;;;24.15;9.90;;;;;;;0.55;100.00;102432.69;5125962;27;20031;-59
2023/03/03 06:57:19;;;;;;;27.02;11.45;;;;;;;0.58;100.00;102443.88;5120098;27;20041;-59
2023/03/03 06:59:51;;;;;;;28.90;12.40;;;;;;;0.63;100.00;102442.16;5133595;27;20123;-60
2023/03/03 07:02:21;;;;;;;;;;;;;;;0.67;100.00;102437.88;5135282;27;20047;-60
2023/03/03 07:04:49;;;;;;;26.88;10.40;;;;;;;0.74;100.00;102438.75;5133305;27;19963;-61
2023/03/03 07:07:20;;;;;;;27.17;11.15;;;;;;;0.77;100.00;102455.13;5125744;27;20066;-60
2023/03/03 07:09:50;;;;;;;28.52;12.77;;;;;;;0.74;100.00;102452.56;5125220;27;20047;-59
2023/03/03 07:12:23;;;;;;;26.33;11.00;;;;;;;0.77;100.00;102460.31;5124830;27;20179;-59
2023/03/03 07:14:55;;;;;;;28.13;11.70;;;;;;;0.84;100.00;102451.69;5118025;27;20039;-59
2023/03/03 07:17:25;;;;;;;;;;;;;;;0.81;100.00;102451.69;5129833;27;20444;-60
2023/03/03 07:19:54;;;;;;;22.02;9.65;;;;;;;0.79;100.00;102458.63;5126492;27;20406;-59
2023/03/03 07:22:25;;;;;;;25.08;11.55;;;;;;;0.76;100.00;102463.75;5122098;27;20147;-60
2023/03/03 07:24:57;;;;;;;24.65;10.18;;;;;;;0.80;100.00;102462.91;5123546;27;20039;-60
2023/03/03 07:27:29;;;;;;;27.52;10.60;;;;;;;0.85;100.00;102468.13;5126513;27;20043;-59
2023/03/03 07:30:17;;;;;;;27.03;10.73;;;;;;;0.93;100.00;102469.00;5123619;27;20039;-59
2023/03/03 07:32:47;;;;;;;22.52;9.57;;;;;;;0.96;100.00;102470.72;5127075;27;20055;-59
2023/03/03 07:35:31;;;;;;;23.42;10.27;;;;;;;0.92;100.00;102475.03;5121219;27;20055;-59
2023/03/03 07:38:00;;;;;;;25.70;11.25;;;;;;;0.94;100.00;102475.91;5121218;27;20051;-59
2023/03/03 07:40:36;;;;;;;27.17;10.38;;;;;;;0.90;100.00;102481.94;5122717;27;20047;-59
2023/03/03 07:43:30;;;;;;;22.88;10.30;;;;;;;0.93;100.00;102479.34;5125318;27;20062;-59
2023/03/03 07:46:04;;;;;;;25.15;10.57;;;;;;;1.01;100.00;102485.41;5127880;27;20054;-59
2023/03/03 07:48:36;;;;;;;25.50;10.57;;;;;;;1.06;100.00;102487.13;5116862;27;20100;-59
2023/03/03 07:51:11;;;;;;;23.95;10.38;;;;;;;1.08;100.00;102487.97;5126046;27;20062;-59
2023/03/03 07:53:39;;;;;;;22.05;10.05;;;;;;;1.13;100.00;102492.34;5131752;27;20520;-59
2023/03/03 07:56:20;;;;;;;23.15;10.10;;;;;;;1.15;100.00;102494.91;5134828;27;20070;-59
2023/03/03 07:58:50;;;;;;;24.40;9.45;;;;;;;1.14;100.00;102496.63;5134595;27;20119;-59
2023/03/03 08:01:38;;;;;;;22.92;10.13;;;;;;;1.09;100.00;102498.38;5124411;27;20058;-59
2023/03/03 08:04:16;;;;;;;22.38;10.70;;;;;;;1.10;100.00;102499.22;5113088;28;20071;-59
2023/03/03 08:06:48;;;;;;;23.30;10.07;;;;;;;1.20;100.00;102510.47;5112267;27;20051;-59
2023/03/03 08:09:35;;;;;;;23.45;9.50;;;;;;;1.33;100.00;102505.28;5133864;27;20039;-59
2023/03/03 08:12:19;;;;;;;25.10;9.73;;;;;;;1.22;100.00;102504.41;5133335;27;20051;-59
2023/03/03 08:14:52;;;;;;;21.48;8.63;;;;;;;1.22;100.00;102511.34;5131439;27;20073;-59
2023/03/03 08:17:22;;;;;;;20.15;8.77;;;;;;;1.30;100.00;102512.22;5132159;27;20050;-58
2023/03/03 08:19:51;;;;;;;24.25;9.30;;;;;;;1.23;100.00;102521.72;5129949;27;20397;-59
2023/03/03 08:22:24;;;;;;;21.33;9.02;;;;;;;1.26;100.00;102520.84;5129428;27;20047;-59
2023/03/03 08:24:53;;;;;;;21.52;9.00;;;;;;;1.29;100.00;102520.84;5132723;27;20401;-60
2023/03/03 08:27:21;;;;;;;23.13;9.73;;;;;;;1.33;100.00;102527.75;5117077;27;20531;-59
2023/03/03 08:29:50;;;;;;;22.95;9.73;;;;;;;1.33;100.00;102527.75;5122726;27;20054;-59
2023/03/03 08:32:18;;;;;;;21.83;9.27;;;;;;;1.34;100.00;102526.91;5127503;27;20554;-59
2023/03/03 08:34:46;;;;;;;19.92;8.68;;;;;;;1.42;100.00;102526.88;5127864;27;20050;-59
2023/03/03 08:37:15;;;;;;;21.17;9.07;;;;;;;1.49;100.00;102529.50;5113162;28;20051;-59
2023/03/03 08:39:43;;;;;;;23.95;9.32;;;;;;;1.51;100.00;102527.78;5112094;28;20039;-59
2023/03/03 08:42:11;;;;;;;22.15;9.38;;;;;;;1.57;100.00;102531.19;5110959;28;20502;-59
2023/03/03 08:44:42;;;;;;;19.77;9.05;;;;;;;1.57;100.00;102541.56;5112599;28;20043;-59
2023/03/03 08:47:11;;;;;;;21.98;8.90;;;;;;;1.64;100.00;102531.22;5112988;28;20113;-59
2023/03/03 08:49:39;;;;;;;22.98;8.23;;;;;;;1.66;100.00;102536.38;5111080;27;20058;-59
2023/03/03 08:52:08;;;;;;;19.88;8.73;;;;;;;1.67;100.00;102527.75;5126778;27;20055;-58
2023/03/03 08:54:36;;;;;;;19.85;8.10;;;;;;;1.69;100.00;102531.19;5130495;27;20416;-58
2023/03/03 08:57:04;;;;;;;22.40;8.65;;;;;;;1.74;100.00;102533.81;5131261;27;20047;-59
2023/03/03 08:59:36;;;;;;;21.30;8.27;;;;;;;1.76;100.00;102530.34;5130464;27;20051;-59
2023/03/03 09:02:05;;;;;;;17.17;7.97;;;;;;;1.81;100.00;102533.81;5131344;27;20054;-59
2023/03/03 09:04:34;;;;;;;19.00;7.95;;;;;;;1.87;100.00;102540.72;5133444;27;20039;-59
2023/03/03 09:07:03;;;;;;;18.10;7.57;;;;;;;1.88;100.00;102542.41;5131589;27;20486;-59
2023/03/03 09:09:31;;;;;;;16.05;7.30;;;;;;;1.92;100.00;102540.69;5118806;27;20131;-59
2023/03/03 09:12:17;;;;;;;18.88;7.28;;;;;;;2.03;100.00;102541.50;5110079;28;20473;-59
2023/03/03 09:14:47;;;;;;;18.20;7.68;;;;;;;2.05;100.00;102539.78;5110852;28;20114;-59
2023/03/03 09:17:25;;;;;;;18.25;7.18;;;;;;;2.06;100.00;102544.13;5113058;28;20494;-59
2023/03/03 09:19:58;;;;;;;17.20;7.10;;;;;;;2.13;100.00;102538.03;5110203;28;20047;-60
2023/03/03 09:22:28;;;;;;;18.42;7.50;;;;;;;2.18;100.00;102546.69;5110547;28;20085;-60
2023/03/03 09:25:00;;;;;;;16.42;6.82;;;;;;;2.29;100.00;102540.59;5110856;28;20514;-60
2023/03/03 09:27:37;;;;;;;17.23;6.60;;;;;;;2.34;100.00;102534.50;5132822;28;20565;-60
2023/03/03 09:30:16;;;;;;;15.70;6.60;;;;;;;2.39;100.00;102531.91;5133307;28;20051;-60
2023/03/03 09:32:44;;;;;;;15.27;7.10;;;;;;;2.49;100.00;102533.56;5133270;28;20064;-60
2023/03/03 09:35:39;;;;;;;16.48;6.70;;;;;;;2.53;100.00;102535.28;5123092;28;20032;-60
2023/03/03 09:38:21;;;;;;;15.00;7.15;;;;;;;2.65;100.00;102531.78;5102179;27;20047;-60
2023/03/03 09:40:59;;;;;;;15.68;6.82;;;;;;;2.70;100.00;102534.38;5132326;27;20431;-60
2023/03/03 09:43:35;;;;;;;15.75;6.72;;;;;;;2.77;100.00;102532.56;5111932;28;20436;-60
2023/03/03 09:46:17;;;;;;;15.52;6.60;;;;;;;2.82;100.00;102538.63;5109588;28;20035;-60
2023/03/03 09:48:58;;;;;;;14.10;6.05;;;;;;;2.93;100.00;102542.03;5108138;28;20088;-60
2023/03/03 09:51:55;;;;;;;13.90;7.10;;;;;;;2.97;100.00;102548.94;5110852;28;20043;-60
2023/03/03 09:54:37;;;;;;;16.38;6.13;;;;;;;3.02;100.00;102546.31;5109108;28;20483;-52
2023/03/03 09:57:13;;;;;;;13.48;6.25;;;;;;;3.12;100.00;102549.69;5122901;27;20482;-52
2023/03/03 10:00:03;;;;;;;14.48;6.68;;;;;;;3.26;100.00;102549.59;5115925;27;20399;-53
2023/03/03 10:02:45;;;;;;;14.45;6.07;;;;;;;3.38;100.00;102554.72;5115268;28;20474;-51
2023/03/03 10:05:26;;;;;;;13.10;6.40;;;;;;;3.44;100.00;102551.22;5112418;27;20047;-49
2023/03/03 10:08:11;;;;;;;13.50;6.03;;;;;;;3.62;100.00;102547.59;5112956;28;20726;-50
2023/03/03 10:11:01;;;;;;;14.95;6.30;;;;;;;3.59;100.00;102552.84;5113505;28;20044;-48
2023/03/03 10:13:55;;;;;;;13.73;6.25;;;;;;;3.64;100.00;102556.22;5115978;28;20059;-48
2023/03/03 10:16:40;;;;;;;13.20;5.63;;;;;;;3.70;100.00;102548.38;5115912;28;20501;-50
2023/03/03 10:19:19;;;;;;;11.60;5.68;;;;;;;3.73;100.00;102549.22;5120129;27;20051;-49
2023/03/03 10:21:57;;;;;;;12.20;5.60;;;;;;;3.88;100.00;102553.41;5125048;27;20050;-49
2023/03/03 10:24:30;;;;;;;12.25;5.35;;;;;;;4.02;100.00;102548.09;5131888;27;20092;-50
2023/03/03 10:27:12;;;;;;;11.50;4.88;;;;;;;4.12;100.00;102553.16;5133544;27;20050;-49
2023/03/03 10:29:46;;;;;;;;;;;;;;;4.22;100.00;102547.84;5124467;27;20054;-49
2023/03/03 10:32:33;;;;;;;13.25;5.45;;;;;;;4.47;100.00;102555.41;5127884;27;19919;-49
2023/03/03 10:35:24;;;;;;;14.30;5.78;;;;;;;4.59;100.00;102563.94;5132499;27;20096;-51
2023/03/03 10:38:05;;;;;;;12.55;5.40;;;;;;;4.62;100.00;102559.56;5075587;28;20059;-48
2023/03/03 10:40:41;;;;;;;16.27;6.78;;;;;;;4.68;100.00;102551.63;5115388;28;20508;-48
2023/03/03 10:43:25;;;;;;;13.10;6.20;;;;;;;4.80;100.00;102553.22;5117793;27;20077;-47
2023/03/03 10:46:25;;;;;;;14.38;5.85;;;;;;;4.85;100.00;102555.75;5131142;27;20049;-48
2023/03/03 10:49:09;;;;;;;11.18;5.53;;;;;;;5.02;100.00;102556.38;5134330;27;20047;-48
2023/03/03 10:51:49;;;;;;;12.32;5.32;;;;;;;5.06;100.00;102557.22;5134557;27;20047;-51
2023/03/03 10:54:37;;;;;;;13.73;5.38;;;;;;;5.04;100.00;102552.00;5134057;27;20104;-51
2023/03/03 10:57:18;;;;;;;14.25;5.60;;;;;;;5.10;100.00;102553.69;5134301;27;20051;-49
2023/03/03 11:00:01;;;;;;;13.30;5.22;;;;;;;5.25;100.00;102549.97;5133975;27;20051;-48
2023/03/03 11:02:43;;;;;;;12.35;6.35;;;;;;;5.49;100.00;102550.47;5133613;27;20096;-48
2023/03/03 11:05:22;;;;;;;14.02;5.22;;;;;;;5.73;100.00;102547.41;5130510;27;20027;-51
2023/03/03 11:07:57;;;;;;;11.30;5.43;;;;;;;5.82;100.00;102546.41;5131711;27;20047;-50
2023/03/03 11:10:38;;;;;;;15.10;4.90;;;;;;;5.87;100.00;102544.56;5135368;27;20050;-49
2023/03/03 11:13:18;;;;;;;10.25;4.50;;;;;;;6.03;100.00;102549.56;5135294;27;20055;-52
2023/03/03 11:16:07;;;;;;;16.25;4.72;;;;;;;5.91;100.00;102546.22;5135369;27;20453;-50
2023/03/03 11:18:46;;;;;;;9.80;4.72;;;;;;;5.80;100.00;102542.97;5134550;27;20051;-52
2023/03/03 11:21:23;;;;;;;10.68;5.03;;;;;;;5.89;100.00;102548.03;5134886;27;20055;-52
2023/03/03 11:24:02;;;;;;;11.63;5.70;;;;;;;6.20;100.00;102541.38;5135267;27;20490;-53
2023/03/03 11:26:46;;;;;;;10.50;5.03;;;;;;;6.36;100.00;102536.72;5135171;27;20051;-52
2023/03/03 11:29:30;;;;;;;12.00;5.38;;;;;;;6.84;100.00;102535.69;5134791;27;20047;-48
2023/03/03 11:32:06;;;;;;;8.95;4.43;;;;;;;7.48;100.00;102530.66;5135132;27;20043;-47
2023/03/03 11:34:51;;;;;;;9.27;4.35;;;;;;;7.84;100.00;102528.00;5134871;27;20049;-52
2023/03/03 11:37:25;;;;;;;9.07;4.40;;;;;;;7.97;100.00;102527.69;5134810;27;20051;-49
2023/03/03 11:39:56;;;;;;;10.77;4.47;;;;;;;7.97;100.00;102525.91;5131849;27;20455;-49